createdAt,value
2023-03-05T07:52:02.033Z,129.38
2023-03-05T07:53:02.144Z,95.62
2023-03-05T07:54:02.353Z,95.62
2023-03-05T07:55:02.529Z,101.25
2023-03-05T07:56:02.598Z,112.50
2023-03-05T07:57:02.753Z,123.75
2023-03-05T07:58:02.935Z,118.12
2023-03-05T07:59:03.042Z,90.00
2023-03-05T08:00:03.230Z,84.38
2023-03-05T08:01:03.352Z,95.62
2023-03-05T08:02:03.500Z,90.00
2023-03-05T08:03:03.691Z,101.25
2023-03-05T08:04:03.874Z,112.50
2023-03-05T08:05:03.925Z,123.75
2023-03-05T08:06:04.061Z,118.12
2023-03-05T08:07:04.279Z,129.38
2023-03-05T08:08:04.351Z,123.75
2023-03-05T08:09:04.544Z,129.38
2023-03-05T08:10:04.640Z,151.88
2023-03-05T08:11:04.767Z,163.12
2023-03-05T08:12:04.869Z,146.25
2023-03-05T08:13:05.019Z,123.75
2023-03-05T08:14:05.307Z,123.75
2023-03-05T08:15:05.347Z,129.38
2023-03-05T08:16:05.534Z,123.75
2023-03-05T08:17:05.584Z,118.12
2023-03-05T08:18:05.731Z,129.38
2023-03-05T08:19:05.960Z,135.00
2023-03-05T08:20:06.076Z,146.25
2023-03-05T08:21:06.242Z,146.25
2023-03-05T08:22:06.390Z,157.50
2023-03-05T08:23:06.558Z,168.75
2023-03-05T08:24:06.715Z,157.50
2023-03-05T08:25:06.825Z,140.62
2023-03-05T08:26:06.975Z,135.00
2023-03-05T08:27:07.144Z,129.38
2023-03-05T08:28:07.344Z,112.50
2023-03-05T08:29:08.188Z,106.88
2023-03-05T08:30:07.642Z,106.88
2023-03-05T08:31:07.745Z,112.50
2023-03-05T08:32:07.889Z,118.12
2023-03-05T08:33:07.960Z,112.50
2023-03-05T08:34:08.205Z,112.50
2023-03-05T08:35:08.257Z,112.50
2023-03-05T08:36:08.376Z,112.50
2023-03-05T08:37:08.560Z,112.50
2023-03-05T08:38:08.725Z,118.12
2023-03-05T08:39:08.863Z,123.75
2023-03-05T08:40:09.008Z,140.62
2023-03-05T08:41:09.146Z,151.88
2023-03-05T08:42:09.260Z,163.12
2023-03-05T08:43:09.408Z,168.75
2023-03-05T08:44:09.563Z,185.62
2023-03-05T08:45:09.687Z,208.12
2023-03-05T08:46:09.929Z,241.88
2023-03-05T08:47:09.984Z,230.62
2023-03-05T08:48:10.114Z,213.75
2023-03-05T08:49:10.303Z,196.88
2023-03-05T08:50:10.455Z,180.00
2023-03-05T08:51:10.599Z,208.12
2023-03-05T08:52:10.764Z,225.00
2023-03-05T08:53:10.767Z,247.50
2023-03-05T08:54:10.910Z,258.75
2023-03-05T08:55:10.987Z,247.50
2023-03-05T08:56:11.195Z,241.88
2023-03-05T08:57:11.312Z,275.62
2023-03-05T08:58:11.426Z,309.38
2023-03-05T08:59:13.618Z,337.50
2023-03-05T09:00:11.694Z,360.00
2023-03-05T09:01:11.867Z,405.00
2023-03-05T09:02:12.019Z,433.12
2023-03-05T09:03:12.113Z,455.62
2023-03-05T09:04:12.272Z,438.75
2023-03-05T09:05:12.387Z,433.12
2023-03-05T09:06:12.614Z,416.25
2023-03-05T09:07:12.701Z,410.62
2023-03-05T09:08:12.815Z,405.00
2023-03-05T09:09:12.922Z,421.88
2023-03-05T09:10:13.080Z,427.50
2023-03-05T09:11:13.161Z,427.50
2023-03-05T09:12:13.325Z,438.75
2023-03-05T09:13:13.405Z,371.25
2023-03-05T09:14:13.566Z,331.88
2023-03-05T09:15:13.655Z,326.25
2023-03-05T09:16:13.846Z,365.62
2023-03-05T09:17:13.971Z,337.50
2023-03-05T09:18:14.141Z,320.62
2023-03-05T09:19:14.234Z,309.38
2023-03-05T09:20:14.343Z,320.62
2023-03-05T09:21:14.452Z,315.00
2023-03-05T09:22:14.639Z,309.38
2023-03-05T09:23:14.815Z,343.12
2023-03-05T09:24:14.871Z,388.12
2023-03-05T09:25:15.018Z,405.00
2023-03-05T09:26:15.229Z,410.62
2023-03-05T09:27:15.388Z,416.25
2023-03-05T09:28:15.521Z,444.38
2023-03-05T09:29:15.626Z,495.00
2023-03-05T09:30:15.759Z,523.12
2023-03-05T09:31:15.922Z,545.62
2023-03-05T09:32:16.093Z,478.12
2023-03-05T09:33:16.199Z,461.25
2023-03-05T09:34:16.311Z,455.62
2023-03-05T09:35:16.417Z,461.25
2023-03-05T09:36:16.549Z,506.25
2023-03-05T09:37:16.665Z,635.62
2023-03-05T09:38:16.810Z,444.38
2023-03-05T09:39:16.926Z,596.25
2023-03-05T09:40:17.015Z,376.88
2023-03-05T09:41:17.098Z,399.38
2023-03-05T09:42:17.215Z,388.12
2023-03-05T09:43:17.418Z,461.25
2023-03-05T09:44:17.529Z,590.62
2023-03-05T09:45:17.629Z,495.00
2023-03-05T09:46:17.882Z,466.88
2023-03-05T09:47:17.940Z,472.50
2023-03-05T09:48:18.144Z,517.50
2023-03-05T09:49:18.251Z,579.38
2023-03-05T09:50:18.405Z,663.75
2023-03-05T09:51:18.477Z,753.75
2023-03-05T09:52:18.656Z,838.12
2023-03-05T09:53:18.832Z,686.25
2023-03-05T09:54:18.898Z,630.00
2023-03-05T09:55:18.989Z,680.62
2023-03-05T09:56:19.215Z,1524.38
2023-03-05T09:57:19.320Z,1766.25
2023-03-05T09:58:19.539Z,1524.38
2023-03-05T09:59:19.692Z,1800.00
2023-03-05T10:00:19.758Z,1085.62
2023-03-05T10:01:19.874Z,1147.50
2023-03-05T10:02:20.029Z,1153.12
2023-03-05T10:03:20.317Z,416.25
2023-03-05T10:04:20.480Z,376.88
2023-03-05T10:05:20.565Z,405.00
2023-03-05T10:06:20.704Z,438.75
2023-03-05T10:07:20.866Z,472.50
2023-03-05T10:08:21.060Z,495.00
2023-03-05T10:09:21.175Z,506.25
2023-03-05T10:10:21.295Z,500.62
2023-03-05T10:11:21.396Z,483.75
2023-03-05T10:12:21.564Z,461.25
2023-03-05T10:13:21.728Z,416.25
2023-03-05T10:14:21.952Z,388.12
2023-03-05T10:15:22.008Z,388.12
2023-03-05T10:16:22.204Z,399.38
2023-03-05T10:17:22.308Z,416.25
2023-03-05T10:18:22.448Z,461.25
2023-03-05T10:19:22.643Z,528.75
2023-03-05T10:20:22.743Z,601.88
2023-03-05T10:21:23.211Z,652.50
2023-03-05T10:22:23.100Z,708.75
2023-03-05T10:23:23.235Z,765.00
2023-03-05T10:24:23.347Z,787.50
2023-03-05T10:25:23.524Z,765.00
2023-03-05T10:26:23.618Z,635.62
2023-03-05T10:27:23.743Z,478.12
2023-03-05T10:28:23.925Z,410.62
2023-03-05T10:29:24.005Z,382.50
2023-03-05T10:30:24.182Z,331.88
2023-03-05T10:31:24.272Z,286.88
2023-03-05T10:32:24.509Z,275.62
2023-03-05T10:33:24.597Z,292.50
2023-03-05T10:34:24.807Z,326.25
2023-03-05T10:35:24.922Z,388.12
2023-03-05T10:36:25.056Z,489.38
2023-03-05T10:37:25.107Z,551.25
2023-03-05T10:38:25.319Z,646.88
2023-03-05T10:39:25.396Z,821.25
2023-03-05T10:40:25.537Z,821.25
2023-03-05T10:41:25.629Z,1074.38
2023-03-05T10:42:25.810Z,1597.50
2023-03-05T10:43:26.034Z,1479.38
2023-03-05T10:44:26.147Z,2160.00
2023-03-05T10:45:26.237Z,2030.62
2023-03-05T10:46:26.348Z,2086.88
2023-03-05T10:47:26.439Z,2176.88
2023-03-05T10:48:26.643Z,1901.25
2023-03-05T10:49:26.737Z,1164.38
2023-03-05T10:50:26.885Z,1794.38
2023-03-05T10:51:26.964Z,1001.25
2023-03-05T10:52:27.126Z,646.88
2023-03-05T10:53:27.284Z,545.62
2023-03-05T10:54:27.462Z,517.50
2023-03-05T10:55:27.636Z,540.00
2023-03-05T10:56:27.777Z,579.38
2023-03-05T10:57:27.872Z,635.62
2023-03-05T10:58:28.028Z,680.62
2023-03-05T10:59:28.129Z,720.00
2023-03-05T11:00:28.331Z,821.25
2023-03-05T11:01:28.550Z,871.88
2023-03-05T11:02:28.671Z,1091.25
2023-03-05T11:03:28.732Z,1513.12
2023-03-05T11:04:28.893Z,1704.38
2023-03-05T11:05:28.970Z,1749.38
2023-03-05T11:06:29.125Z,1777.50
2023-03-05T11:07:29.216Z,1766.25
2023-03-05T11:08:29.561Z,1805.62
2023-03-05T11:09:29.506Z,1035.00
2023-03-05T11:10:29.692Z,990.00
2023-03-05T11:11:29.848Z,1080.00
2023-03-05T11:12:29.976Z,1254.38
2023-03-05T11:13:30.064Z,2356.88
2023-03-05T11:14:30.160Z,2238.75
2023-03-05T11:15:30.279Z,1620.00
2023-03-05T11:16:30.460Z,1186.88
2023-03-05T11:17:30.582Z,2244.38
2023-03-05T11:18:30.717Z,1766.25
2023-03-05T11:19:30.803Z,956.25
2023-03-05T11:20:30.899Z,995.62
2023-03-05T11:21:31.070Z,1788.75
2023-03-05T11:22:31.268Z,1850.62
2023-03-05T11:23:31.426Z,1181.25
2023-03-05T11:24:31.527Z,945.00
2023-03-05T11:25:31.676Z,990.00
2023-03-05T11:26:31.796Z,1248.75
2023-03-05T11:27:31.956Z,2244.38
2023-03-05T11:28:33.705Z,1181.25
2023-03-05T11:29:32.192Z,1130.62
2023-03-05T11:30:32.358Z,2058.75
2023-03-05T11:31:32.420Z,1321.88
2023-03-05T11:32:32.661Z,1158.75
2023-03-05T11:33:32.802Z,1895.62
2023-03-05T11:34:32.920Z,1946.25
2023-03-05T11:35:33.064Z,2396.25
2023-03-05T11:36:33.152Z,2536.88
2023-03-05T11:37:33.304Z,2497.50
2023-03-05T11:38:35.056Z,2610.00
2023-03-05T11:39:33.568Z,2570.62
2023-03-05T11:40:33.682Z,2491.88
2023-03-05T11:41:33.826Z,2565.00
2023-03-05T11:42:33.915Z,2598.75
2023-03-05T11:43:34.074Z,2688.75
2023-03-05T11:44:34.138Z,2632.50
2023-03-05T11:45:34.270Z,2677.50
2023-03-05T11:46:34.447Z,2739.38
2023-03-05T11:47:34.528Z,2705.62
2023-03-05T11:48:34.671Z,2846.25
2023-03-05T11:49:35.345Z,2936.25
2023-03-05T11:50:34.886Z,2688.75
2023-03-05T11:51:35.021Z,2300.62
2023-03-05T11:52:35.128Z,2176.88
2023-03-05T11:53:35.279Z,1743.75
2023-03-05T11:54:35.400Z,1501.88
2023-03-05T11:55:35.530Z,1158.75
2023-03-05T11:56:35.665Z,1310.62
2023-03-05T11:57:35.784Z,1704.38
2023-03-05T11:58:35.922Z,1760.62
2023-03-05T11:59:36.019Z,1895.62
2023-03-05T12:00:36.133Z,1957.50
2023-03-05T12:01:36.282Z,1653.75
2023-03-05T12:02:36.423Z,1563.75
2023-03-05T12:03:36.591Z,1164.38
2023-03-05T12:04:36.614Z,1676.25
2023-03-05T12:05:36.745Z,1783.12
2023-03-05T12:06:36.865Z,1935.00
2023-03-05T12:07:36.994Z,1918.12
2023-03-05T12:08:37.153Z,1783.12
2023-03-05T12:09:37.266Z,1698.75
2023-03-05T12:10:37.415Z,1636.88
2023-03-05T12:11:37.541Z,1209.38
2023-03-05T12:12:37.676Z,1906.88
2023-03-05T12:13:38.846Z,1215.00
2023-03-05T12:14:37.878Z,1760.62
2023-03-05T12:15:38.021Z,1710.00
2023-03-05T12:16:38.164Z,1614.38
2023-03-05T12:17:38.243Z,1625.62
2023-03-05T12:18:38.364Z,1552.50
2023-03-05T12:19:38.477Z,1513.12
2023-03-05T12:20:38.691Z,1473.75
2023-03-05T12:21:38.802Z,1406.25
2023-03-05T12:22:39.687Z,1366.88
2023-03-05T12:23:39.536Z,1293.75
2023-03-05T12:24:39.579Z,1271.25
2023-03-05T12:25:39.542Z,1260.00
2023-03-05T12:26:39.503Z,1282.50
2023-03-05T12:27:39.506Z,1299.38
2023-03-05T12:28:39.667Z,1293.75
2023-03-05T12:29:40.117Z,1389.38
2023-03-05T12:30:39.817Z,1366.88
2023-03-05T12:31:39.955Z,1333.12
2023-03-05T12:32:40.102Z,1344.38
2023-03-05T12:33:40.224Z,1395.00
2023-03-05T12:34:40.573Z,1361.25
2023-03-05T12:35:41.212Z,1310.62
2023-03-05T12:36:40.878Z,1389.38
2023-03-05T12:37:40.768Z,1513.12
2023-03-05T12:38:40.881Z,1591.88
2023-03-05T12:39:41.711Z,1783.12
2023-03-05T12:40:41.446Z,1906.88
2023-03-05T12:41:41.801Z,1951.88
2023-03-05T12:42:41.418Z,1805.62
2023-03-05T12:43:41.568Z,1845.00
2023-03-05T12:44:41.644Z,1856.25
2023-03-05T12:45:41.818Z,1884.38
2023-03-05T12:46:41.923Z,1929.38
2023-03-05T12:47:42.057Z,1620.00
2023-03-05T12:48:42.292Z,1912.50
2023-03-05T12:49:42.259Z,1918.12
2023-03-05T12:50:42.380Z,1980.00
2023-03-05T12:51:42.498Z,1968.75
2023-03-05T12:52:42.721Z,1980.00
2023-03-05T12:53:42.748Z,1912.50
2023-03-05T12:54:42.850Z,1828.12
2023-03-05T12:55:42.991Z,1805.62
2023-03-05T12:56:43.137Z,1845.00
2023-03-05T12:57:43.271Z,1912.50
2023-03-05T12:58:43.390Z,2036.25
2023-03-05T12:59:43.489Z,2131.88
2023-03-05T13:00:43.692Z,1485.00
2023-03-05T13:01:43.748Z,1974.38
2023-03-05T13:02:43.897Z,1901.25
2023-03-05T13:03:44.039Z,2109.38
2023-03-05T13:04:44.106Z,2131.88
2023-03-05T13:05:44.264Z,1861.88
2023-03-05T13:06:44.314Z,1546.88
2023-03-05T13:07:44.487Z,1091.25
2023-03-05T13:08:44.582Z,961.88
2023-03-05T13:09:44.698Z,1501.88
2023-03-05T13:10:44.800Z,1434.38
2023-03-05T13:11:45.029Z,1113.75
2023-03-05T13:12:45.122Z,945.00
2023-03-05T13:13:45.262Z,838.12
2023-03-05T13:14:45.391Z,849.38
2023-03-05T13:15:45.562Z,849.38
2023-03-05T13:16:45.826Z,894.38
2023-03-05T13:17:45.919Z,1355.62
2023-03-05T13:18:46.052Z,1479.38
2023-03-05T13:19:46.172Z,1608.75
2023-03-05T13:20:46.283Z,1777.50
2023-03-05T13:21:46.467Z,1884.38
2023-03-05T13:22:46.671Z,2098.12
2023-03-05T13:23:46.733Z,2053.12
2023-03-05T13:24:46.813Z,1901.25
2023-03-05T13:25:47.005Z,2025.00
2023-03-05T13:26:47.147Z,2036.25
2023-03-05T13:27:47.227Z,1996.88
2023-03-05T13:28:47.371Z,1918.12
2023-03-05T13:29:47.508Z,2070.00
2023-03-05T13:30:47.682Z,2115.00
2023-03-05T13:31:47.949Z,2311.88
2023-03-05T13:32:47.939Z,2205.00
2023-03-05T13:33:48.116Z,2182.50
2023-03-05T13:34:48.301Z,2199.38
